sensor_id;sensor_type;location;lat;lon;timestamp;temperature;humidity
16402;DHT22;8310;44.626;11.176;2024-03-02T00:00:48;13.70;75.10
16402;DHT22;8310;44.626;11.176;2024-03-02T00:03:17;13.70;75.20
16402;DHT22;8310;44.626;11.176;2024-03-02T00:05:47;13.70;75.20
16402;DHT22;8310;44.626;11.176;2024-03-02T00:08:17;13.70;75.20
16402;DHT22;8310;44.626;11.176;2024-03-02T00:10:47;13.70;75.20
16402;DHT22;8310;44.626;11.176;2024-03-02T00:13:15;13.70;75.10
16402;DHT22;8310;44.626;11.176;2024-03-02T00:15:45;13.70;75.10
16402;DHT22;8310;44.626;11.176;2024-03-02T00:18:14;13.70;75.20
16402;DHT22;8310;44.626;11.176;2024-03-02T00:20:44;13.70;75.30
16402;DHT22;8310;44.626;11.176;2024-03-02T00:23:14;13.70;75.20
16402;DHT22;8310;44.626;11.176;2024-03-02T00:25:42;13.70;75.20
16402;DHT22;8310;44.626;11.176;2024-03-02T00:28:14;13.70;75.20
16402;DHT22;8310;44.626;11.176;2024-03-02T00:33:27;13.70;75.20
16402;DHT22;8310;44.626;11.176;2024-03-02T00:35:58;13.70;75.20
16402;DHT22;8310;44.626;11.176;2024-03-02T00:38:26;13.70;75.20
16402;DHT22;8310;44.626;11.176;2024-03-02T00:40:54;13.70;75.20
16402;DHT22;8310;44.626;11.176;2024-03-02T00:43:38;13.70;75.30
16402;DHT22;8310;44.626;11.176;2024-03-02T00:46:09;13.70;75.20
16402;DHT22;8310;44.626;11.176;2024-03-02T00:48:38;13.70;75.30
16402;DHT22;8310;44.626;11.176;2024-03-02T00:51:07;13.60;75.30
16402;DHT22;8310;44.626;11.176;2024-03-02T00:53:34;13.70;75.20
16402;DHT22;8310;44.626;11.176;2024-03-02T00:56:01;13.60;75.20
16402;DHT22;8310;44.626;11.176;2024-03-02T00:58:29;13.60;75.20
16402;DHT22;8310;44.626;11.176;2024-03-02T01:00:56;13.60;75.20
16402;DHT22;8310;44.626;11.176;2024-03-02T01:03:24;13.60;75.20
16402;DHT22;8310;44.626;11.176;2024-03-02T01:05:51;13.60;75.20
16402;DHT22;8310;44.626;11.176;2024-03-02T01:08:20;13.60;75.20
16402;DHT22;8310;44.626;11.176;2024-03-02T01:10:47;13.60;75.20
16402;DHT22;8310;44.626;11.176;2024-03-02T01:13:14;13.60;75.30
16402;DHT22;8310;44.626;11.176;2024-03-02T01:15:41;13.60;75.30
16402;DHT22;8310;44.626;11.176;2024-03-02T01:18:10;13.60;75.30
16402;DHT22;8310;44.626;11.176;2024-03-02T01:20:37;13.60;75.30
16402;DHT22;8310;44.626;11.176;2024-03-02T01:23:05;13.60;75.30
16402;DHT22;8310;44.626;11.176;2024-03-02T01:25:34;13.60;75.30
16402;DHT22;8310;44.626;11.176;2024-03-02T01:28:01;13.60;75.30
16402;DHT22;8310;44.626;11.176;2024-03-02T01:30:28;13.60;75.30
16402;DHT22;8310;44.626;11.176;2024-03-02T01:32:55;13.60;75.30
16402;DHT22;8310;44.626;11.176;2024-03-02T01:35:24;13.60;75.30
16402;DHT22;8310;44.626;11.176;2024-03-02T01:37:52;13.60;75.30
16402;DHT22;8310;44.626;11.176;2024-03-02T01:40:19;13.60;75.30
16402;DHT22;8310;44.626;11.176;2024-03-02T01:42:48;13.60;75.30
16402;DHT22;8310;44.626;11.176;2024-03-02T01:45:15;13.60;75.30
16402;DHT22;8310;44.626;11.176;2024-03-02T01:47:43;13.60;75.30
16402;DHT22;8310;44.626;11.176;2024-03-02T01:50:10;13.60;75.30
16402;DHT22;8310;44.626;11.176;2024-03-02T01:52:38;13.60;75.30
16402;DHT22;8310;44.626;11.176;2024-03-02T01:55:06;13.60;75.30
16402;DHT22;8310;44.626;11.176;2024-03-02T01:57:34;13.60;75.30
16402;DHT22;8310;44.626;11.176;2024-03-02T02:00:03;13.60;75.30
16402;DHT22;8310;44.626;11.176;2024-03-02T02:02:31;13.60;75.30
16402;DHT22;8310;44.626;11.176;2024-03-02T02:04:58;13.60;75.30
16402;DHT22;8310;44.626;11.176;2024-03-02T02:07:25;13.50;75.20
16402;DHT22;8310;44.626;11.176;2024-03-02T02:09:53;13.50;75.20
16402;DHT22;8310;44.626;11.176;2024-03-02T02:12:20;13.50;75.30
16402;DHT22;8310;44.626;11.176;2024-03-02T02:14:48;13.50;75.30
16402;DHT22;8310;44.626;11.176;2024-03-02T02:17:17;13.50;75.30
16402;DHT22;8310;44.626;11.176;2024-03-02T02:19:44;13.50;75.30
16402;DHT22;8310;44.626;11.176;2024-03-02T02:22:13;13.50;75.30
16402;DHT22;8310;44.626;11.176;2024-03-02T02:24:41;13.50;75.30
16402;DHT22;8310;44.626;11.176;2024-03-02T02:27:08;13.50;75.30
16402;DHT22;8310;44.626;11.176;2024-03-02T02:29:36;13.50;75.30
16402;DHT22;8310;44.626;11.176;2024-03-02T02:32:03;13.50;75.30
16402;DHT22;8310;44.626;11.176;2024-03-02T02:34:30;13.50;75.30
16402;DHT22;8310;44.626;11.176;2024-03-02T02:36:58;13.50;75.40
16402;DHT22;8310;44.626;11.176;2024-03-02T02:39:27;13.50;76.20
16402;DHT22;8310;44.626;11.176;2024-03-02T02:41:54;13.50;75.30
16402;DHT22;8310;44.626;11.176;2024-03-02T02:44:22;13.50;75.30
16402;DHT22;8310;44.626;11.176;2024-03-02T02:46:49;13.50;75.30
16402;DHT22;8310;44.626;11.176;2024-03-02T02:49:16;13.40;75.30
16402;DHT22;8310;44.626;11.176;2024-03-02T02:51:44;13.40;75.20
16402;DHT22;8310;44.626;11.176;2024-03-02T02:54:12;13.40;75.20
16402;DHT22;8310;44.626;11.176;2024-03-02T02:56:40;13.40;75.20
16402;DHT22;8310;44.626;11.176;2024-03-02T02:59:08;13.40;75.30
16402;DHT22;8310;44.626;11.176;2024-03-02T03:01:36;13.40;75.30
16402;DHT22;8310;44.626;11.176;2024-03-02T03:04:03;13.40;75.30
16402;DHT22;8310;44.626;11.176;2024-03-02T03:06:30;13.40;75.40
16402;DHT22;8310;44.626;11.176;2024-03-02T03:08:57;13.40;75.40
16402;DHT22;8310;44.626;11.176;2024-03-02T03:11:24;13.40;75.40
16402;DHT22;8310;44.626;11.176;2024-03-02T03:13:53;13.40;75.40
16402;DHT22;8310;44.626;11.176;2024-03-02T03:16:21;13.40;75.40
16402;DHT22;8310;44.626;11.176;2024-03-02T03:18:48;13.40;75.40
16402;DHT22;8310;44.626;11.176;2024-03-02T03:21:16;13.40;75.40
16402;DHT22;8310;44.626;11.176;2024-03-02T03:23:44;13.40;75.40
16402;DHT22;8310;44.626;11.176;2024-03-02T03:26:12;13.40;75.40
16402;DHT22;8310;44.626;11.176;2024-03-02T03:28:39;13.40;75.40
16402;DHT22;8310;44.626;11.176;2024-03-02T03:31:08;13.40;75.40
16402;DHT22;8310;44.626;11.176;2024-03-02T03:33:36;13.40;75.40
16402;DHT22;8310;44.626;11.176;2024-03-02T03:36:03;13.40;75.40
16402;DHT22;8310;44.626;11.176;2024-03-02T03:38:31;13.40;75.40
16402;DHT22;8310;44.626;11.176;2024-03-02T03:40:58;13.40;75.40
16402;DHT22;8310;44.626;11.176;2024-03-02T03:43:26;13.30;75.40
16402;DHT22;8310;44.626;11.176;2024-03-02T03:45:54;13.30;75.30
16402;DHT22;8310;44.626;11.176;2024-03-02T03:48:25;13.40;75.40
16402;DHT22;8310;44.626;11.176;2024-03-02T03:50:56;13.30;75.30
16402;DHT22;8310;44.626;11.176;2024-03-02T03:53:23;13.30;75.40
16402;DHT22;8310;44.626;11.176;2024-03-02T03:55:50;13.40;75.40
16402;DHT22;8310;44.626;11.176;2024-03-02T03:58:18;13.40;75.50
16402;DHT22;8310;44.626;11.176;2024-03-02T04:00:46;13.40;75.50
16402;DHT22;8310;44.626;11.176;2024-03-02T04:03:14;13.30;75.40
16402;DHT22;8310;44.626;11.176;2024-03-02T04:05:44;13.40;75.60
16402;DHT22;8310;44.626;11.176;2024-03-02T04:08:12;13.30;75.40
16402;DHT22;8310;44.626;11.176;2024-03-02T04:10:39;13.30;75.40
16402;DHT22;8310;44.626;11.176;2024-03-02T04:13:07;13.40;75.40
16402;DHT22;8310;44.626;11.176;2024-03-02T04:15:35;13.30;75.40
16402;DHT22;8310;44.626;11.176;2024-03-02T04:18:03;13.30;75.30
16402;DHT22;8310;44.626;11.176;2024-03-02T04:20:31;13.30;75.40
16402;DHT22;8310;44.626;11.176;2024-03-02T04:22:59;13.30;75.40
16402;DHT22;8310;44.626;11.176;2024-03-02T04:25:26;13.30;75.40
16402;DHT22;8310;44.626;11.176;2024-03-02T04:27:54;13.30;75.40
16402;DHT22;8310;44.626;11.176;2024-03-02T04:30:21;13.30;75.40
16402;DHT22;8310;44.626;11.176;2024-03-02T04:32:48;13.30;75.40
16402;DHT22;8310;44.626;11.176;2024-03-02T04:35:16;13.30;75.40
16402;DHT22;8310;44.626;11.176;2024-03-02T04:37:43;13.30;75.40
16402;DHT22;8310;44.626;11.176;2024-03-02T04:40:13;13.30;75.50
16402;DHT22;8310;44.626;11.176;2024-03-02T04:42:41;13.30;75.40
16402;DHT22;8310;44.626;11.176;2024-03-02T04:45:09;13.20;75.30
16402;DHT22;8310;44.626;11.176;2024-03-02T04:47:36;13.20;75.30
16402;DHT22;8310;44.626;11.176;2024-03-02T04:50:04;13.20;75.30
16402;DHT22;8310;44.626;11.176;2024-03-02T04:52:33;13.20;75.40
16402;DHT22;8310;44.626;11.176;2024-03-02T04:55:00;13.20;75.50
16402;DHT22;8310;44.626;11.176;2024-03-02T04:57:51;13.20;75.40
16402;DHT22;8310;44.626;11.176;2024-03-02T05:00:20;13.20;75.40
16402;DHT22;8310;44.626;11.176;2024-03-02T05:02:47;13.20;75.50
16402;DHT22;8310;44.626;11.176;2024-03-02T05:05:15;13.20;75.50
16402;DHT22;8310;44.626;11.176;2024-03-02T05:07:42;13.20;75.50
16402;DHT22;8310;44.626;11.176;2024-03-02T05:10:10;13.20;75.50
16402;DHT22;8310;44.626;11.176;2024-03-02T05:12:38;13.20;75.50
16402;DHT22;8310;44.626;11.176;2024-03-02T05:15:23;13.20;75.30
16402;DHT22;8310;44.626;11.176;2024-03-02T05:17:50;13.20;75.20
16402;DHT22;8310;44.626;11.176;2024-03-02T05:20:18;13.10;75.10
16402;DHT22;8310;44.626;11.176;2024-03-02T05:22:46;13.00;75.10
16402;DHT22;8310;44.626;11.176;2024-03-02T05:25:15;13.10;76.10
16402;DHT22;8310;44.626;11.176;2024-03-02T05:27:42;13.00;75.40
16402;DHT22;8310;44.626;11.176;2024-03-02T05:30:10;13.00;75.40
16402;DHT22;8310;44.626;11.176;2024-03-02T05:32:39;13.10;75.50
16402;DHT22;8310;44.626;11.176;2024-03-02T05:35:07;13.10;75.50
16402;DHT22;8310;44.626;11.176;2024-03-02T05:37:36;13.10;75.60
16402;DHT22;8310;44.626;11.176;2024-03-02T05:40:04;13.10;75.60
16402;DHT22;8310;44.626;11.176;2024-03-02T05:42:31;13.10;75.60
16402;DHT22;8310;44.626;11.176;2024-03-02T05:44:59;13.10;75.60
16402;DHT22;8310;44.626;11.176;2024-03-02T05:47:26;13.10;75.60
16402;DHT22;8310;44.626;11.176;2024-03-02T05:49:55;13.10;75.60
16402;DHT22;8310;44.626;11.176;2024-03-02T05:52:22;13.10;75.60
16402;DHT22;8310;44.626;11.176;2024-03-02T05:54:50;13.10;75.60
16402;DHT22;8310;44.626;11.176;2024-03-02T05:57:17;13.20;75.60
16402;DHT22;8310;44.626;11.176;2024-03-02T05:59:59;13.10;75.60
16402;DHT22;8310;44.626;11.176;2024-03-02T06:02:26;13.20;75.60
16402;DHT22;8310;44.626;11.176;2024-03-02T06:04:55;13.20;75.70
16402;DHT22;8310;44.626;11.176;2024-03-02T06:07:23;13.10;75.70
16402;DHT22;8310;44.626;11.176;2024-03-02T06:09:50;13.20;75.70
16402;DHT22;8310;44.626;11.176;2024-03-02T06:12:17;13.20;75.70
16402;DHT22;8310;44.626;11.176;2024-03-02T06:14:45;13.20;75.80
16402;DHT22;8310;44.626;11.176;2024-03-02T06:17:13;13.20;75.80
16402;DHT22;8310;44.626;11.176;2024-03-02T06:19:41;13.20;75.70
16402;DHT22;8310;44.626;11.176;2024-03-02T06:22:09;13.20;75.80
16402;DHT22;8310;44.626;11.176;2024-03-02T06:24:37;13.20;75.80
16402;DHT22;8310;44.626;11.176;2024-03-02T06:27:05;13.20;75.80
16402;DHT22;8310;44.626;11.176;2024-03-02T06:29:32;13.30;75.90
16402;DHT22;8310;44.626;11.176;2024-03-02T06:32:00;13.30;75.80
16402;DHT22;8310;44.626;11.176;2024-03-02T06:34:28;13.30;75.80
16402;DHT22;8310;44.626;11.176;2024-03-02T06:36:55;13.30;75.90
16402;DHT22;8310;44.626;11.176;2024-03-02T06:39:24;13.30;75.90
16402;DHT22;8310;44.626;11.176;2024-03-02T06:41:51;13.30;75.90
16402;DHT22;8310;44.626;11.176;2024-03-02T06:44:19;13.30;75.90
16402;DHT22;8310;44.626;11.176;2024-03-02T06:46:46;13.40;75.90
16402;DHT22;8310;44.626;11.176;2024-03-02T06:49:14;13.30;75.90
16402;DHT22;8310;44.626;11.176;2024-03-02T06:51:44;13.40;75.90
16402;DHT22;8310;44.626;11.176;2024-03-02T06:54:11;13.40;76.00
16402;DHT22;8310;44.626;11.176;2024-03-02T06:56:40;13.40;75.90
16402;DHT22;8310;44.626;11.176;2024-03-02T06:59:07;13.40;75.90
16402;DHT22;8310;44.626;11.176;2024-03-02T07:01:35;13.40;75.90
16402;DHT22;8310;44.626;11.176;2024-03-02T07:04:01;13.40;75.90
16402;DHT22;8310;44.626;11.176;2024-03-02T07:06:29;13.40;75.90
16402;DHT22;8310;44.626;11.176;2024-03-02T07:08:56;13.40;75.90
16402;DHT22;8310;44.626;11.176;2024-03-02T07:11:24;13.40;76.00
16402;DHT22;8310;44.626;11.176;2024-03-02T07:13:53;13.40;76.00
16402;DHT22;8310;44.626;11.176;2024-03-02T07:16:20;13.40;76.00
16402;DHT22;8310;44.626;11.176;2024-03-02T07:18:54;13.40;76.00
16402;DHT22;8310;44.626;11.176;2024-03-02T07:21:22;13.50;76.00
16402;DHT22;8310;44.626;11.176;2024-03-02T07:23:50;13.40;76.00
16402;DHT22;8310;44.626;11.176;2024-03-02T07:26:17;13.40;76.00
16402;DHT22;8310;44.626;11.176;2024-03-02T07:28:45;13.40;76.00
16402;DHT22;8310;44.626;11.176;2024-03-02T07:31:15;13.50;76.10
16402;DHT22;8310;44.626;11.176;2024-03-02T07:33:43;13.50;76.00
16402;DHT22;8310;44.626;11.176;2024-03-02T07:36:11;13.50;76.10
16402;DHT22;8310;44.626;11.176;2024-03-02T07:38:38;13.50;76.10
16402;DHT22;8310;44.626;11.176;2024-03-02T07:41:06;13.50;76.10
16402;DHT22;8310;44.626;11.176;2024-03-02T07:43:32;13.50;76.30
16402;DHT22;8310;44.626;11.176;2024-03-02T07:46:00;13.60;76.30
16402;DHT22;8310;44.626;11.176;2024-03-02T07:48:30;13.60;76.20
16402;DHT22;8310;44.626;11.176;2024-03-02T07:50:57;13.60;76.20
16402;DHT22;8310;44.626;11.176;2024-03-02T07:53:25;13.70;76.30
16402;DHT22;8310;44.626;11.176;2024-03-02T07:55:52;13.70;76.30
16402;DHT22;8310;44.626;11.176;2024-03-02T07:58:20;13.70;76.30
16402;DHT22;8310;44.626;11.176;2024-03-02T08:00:46;13.70;76.30
16402;DHT22;8310;44.626;11.176;2024-03-02T08:03:14;13.70;76.40
16402;DHT22;8310;44.626;11.176;2024-03-02T08:05:43;13.70;76.30
16402;DHT22;8310;44.626;11.176;2024-03-02T08:08:11;13.80;76.40
16402;DHT22;8310;44.626;11.176;2024-03-02T08:10:38;13.80;76.30
16402;DHT22;8310;44.626;11.176;2024-03-02T08:13:06;13.80;76.30
16402;DHT22;8310;44.626;11.176;2024-03-02T08:15:33;13.80;76.30
16402;DHT22;8310;44.626;11.176;2024-03-02T08:17:59;13.80;76.40
16402;DHT22;8310;44.626;11.176;2024-03-02T08:20:27;13.80;76.40
16402;DHT22;8310;44.626;11.176;2024-03-02T08:22:55;13.90;76.40
16402;DHT22;8310;44.626;11.176;2024-03-02T08:25:23;13.90;76.40
16402;DHT22;8310;44.626;11.176;2024-03-02T08:27:50;13.90;76.50
16402;DHT22;8310;44.626;11.176;2024-03-02T08:30:17;13.90;76.40
16402;DHT22;8310;44.626;11.176;2024-03-02T08:32:45;13.90;76.50
16402;DHT22;8310;44.626;11.176;2024-03-02T08:35:12;14.00;76.60
16402;DHT22;8310;44.626;11.176;2024-03-02T08:37:40;14.00;76.60
16402;DHT22;8310;44.626;11.176;2024-03-02T08:40:10;14.00;76.60
16402;DHT22;8310;44.626;11.176;2024-03-02T08:42:37;14.00;76.60
16402;DHT22;8310;44.626;11.176;2024-03-02T08:45:06;14.00;76.60
16402;DHT22;8310;44.626;11.176;2024-03-02T08:47:33;14.10;76.70
16402;DHT22;8310;44.626;11.176;2024-03-02T08:50:01;14.10;76.80
16402;DHT22;8310;44.626;11.176;2024-03-02T08:52:29;14.20;76.80
16402;DHT22;8310;44.626;11.176;2024-03-02T08:54:56;14.20;76.80
16402;DHT22;8310;44.626;11.176;2024-03-02T08:57:26;14.20;77.50
16402;DHT22;8310;44.626;11.176;2024-03-02T08:59:53;14.30;76.90
16402;DHT22;8310;44.626;11.176;2024-03-02T09:02:20;14.30;76.90
16402;DHT22;8310;44.626;11.176;2024-03-02T09:04:47;14.30;76.80
16402;DHT22;8310;44.626;11.176;2024-03-02T09:07:15;14.30;76.90
16402;DHT22;8310;44.626;11.176;2024-03-02T09:09:43;14.40;76.90
16402;DHT22;8310;44.626;11.176;2024-03-02T09:12:10;14.40;77.00
16402;DHT22;8310;44.626;11.176;2024-03-02T09:14:40;14.50;77.90
16402;DHT22;8310;44.626;11.176;2024-03-02T09:17:07;14.50;77.00
16402;DHT22;8310;44.626;11.176;2024-03-02T09:19:36;14.50;77.00
16402;DHT22;8310;44.626;11.176;2024-03-02T09:22:03;14.60;77.10
16402;DHT22;8310;44.626;11.176;2024-03-02T09:24:31;14.60;77.00
16402;DHT22;8310;44.626;11.176;2024-03-02T09:26:58;14.60;77.00
16402;DHT22;8310;44.626;11.176;2024-03-02T09:29:26;14.60;77.10
16402;DHT22;8310;44.626;11.176;2024-03-02T09:31:54;14.70;77.10
16402;DHT22;8310;44.626;11.176;2024-03-02T09:34:22;14.70;77.20
16402;DHT22;8310;44.626;11.176;2024-03-02T09:36:50;14.80;77.20
16402;DHT22;8310;44.626;11.176;2024-03-02T09:39:18;14.80;77.10
16402;DHT22;8310;44.626;11.176;2024-03-02T09:41:45;14.80;77.10
16402;DHT22;8310;44.626;11.176;2024-03-02T09:44:12;14.80;77.10
16402;DHT22;8310;44.626;11.176;2024-03-02T09:46:40;14.80;77.10
16402;DHT22;8310;44.626;11.176;2024-03-02T09:49:11;14.80;77.20
16402;DHT22;8310;44.626;11.176;2024-03-02T09:51:38;14.80;77.20
16402;DHT22;8310;44.626;11.176;2024-03-02T09:54:07;14.90;77.30
16402;DHT22;8310;44.626;11.176;2024-03-02T09:56:36;14.90;77.30
16402;DHT22;8310;44.626;11.176;2024-03-02T09:59:03;14.90;77.30
16402;DHT22;8310;44.626;11.176;2024-03-02T10:01:31;14.90;77.30
16402;DHT22;8310;44.626;11.176;2024-03-02T10:03:58;15.00;77.40
16402;DHT22;8310;44.626;11.176;2024-03-02T10:06:28;15.00;77.40
16402;DHT22;8310;44.626;11.176;2024-03-02T10:08:56;15.00;77.40
16402;DHT22;8310;44.626;11.176;2024-03-02T10:11:27;15.10;77.50
16402;DHT22;8310;44.626;11.176;2024-03-02T10:14:04;15.20;77.70
16402;DHT22;8310;44.626;11.176;2024-03-02T10:16:33;15.20;77.80
16402;DHT22;8310;44.626;11.176;2024-03-02T10:19:14;15.30;78.00
16402;DHT22;8310;44.626;11.176;2024-03-02T10:21:43;15.40;78.30
16402;DHT22;8310;44.626;11.176;2024-03-02T10:24:11;15.50;78.30
16402;DHT22;8310;44.626;11.176;2024-03-02T10:26:39;15.60;78.40
16402;DHT22;8310;44.626;11.176;2024-03-02T10:29:07;15.70;78.50
16402;DHT22;8310;44.626;11.176;2024-03-02T10:31:36;15.80;78.50
16402;DHT22;8310;44.626;11.176;2024-03-02T10:34:04;15.90;78.50
16402;DHT22;8310;44.626;11.176;2024-03-02T10:36:32;15.90;78.70
16402;DHT22;8310;44.626;11.176;2024-03-02T10:39:03;16.00;78.40
16402;DHT22;8310;44.626;11.176;2024-03-02T10:41:31;16.00;78.20
16402;DHT22;8310;44.626;11.176;2024-03-02T10:43:59;16.10;78.10
16402;DHT22;8310;44.626;11.176;2024-03-02T10:46:29;16.10;77.90
16402;DHT22;8310;44.626;11.176;2024-03-02T10:48:57;16.10;77.90
16402;DHT22;8310;44.626;11.176;2024-03-02T10:51:24;16.10;77.70
16402;DHT22;8310;44.626;11.176;2024-03-02T10:53:51;16.00;77.50
16402;DHT22;8310;44.626;11.176;2024-03-02T10:56:21;16.00;77.50
16402;DHT22;8310;44.626;11.176;2024-03-02T10:58:50;16.00;77.60
16402;DHT22;8310;44.626;11.176;2024-03-02T11:01:17;16.00;77.60
16402;DHT22;8310;44.626;11.176;2024-03-02T11:03:45;16.00;77.60
16402;DHT22;8310;44.626;11.176;2024-03-02T11:06:13;16.10;77.60
16402;DHT22;8310;44.626;11.176;2024-03-02T11:08:41;16.00;77.00
16402;DHT22;8310;44.626;11.176;2024-03-02T11:11:11;16.00;77.00
16402;DHT22;8310;44.626;11.176;2024-03-02T11:13:42;15.90;77.00
16402;DHT22;8310;44.626;11.176;2024-03-02T11:16:16;15.90;77.10
16402;DHT22;8310;44.626;11.176;2024-03-02T11:18:46;15.90;77.00
16402;DHT22;8310;44.626;11.176;2024-03-02T11:21:14;15.90;77.00
16402;DHT22;8310;44.626;11.176;2024-03-02T11:23:42;15.90;77.40
16402;DHT22;8310;44.626;11.176;2024-03-02T11:26:19;16.00;78.00
16402;DHT22;8310;44.626;11.176;2024-03-02T11:28:48;16.10;78.40
16402;DHT22;8310;44.626;11.176;2024-03-02T11:31:15;16.40;79.10
16402;DHT22;8310;44.626;11.176;2024-03-02T11:33:42;16.60;79.30
16402;DHT22;8310;44.626;11.176;2024-03-02T11:36:10;16.70;79.50
16402;DHT22;8310;44.626;11.176;2024-03-02T11:38:37;17.00;79.90
16402;DHT22;8310;44.626;11.176;2024-03-02T11:41:06;17.30;79.90
16402;DHT22;8310;44.626;11.176;2024-03-02T11:43:36;17.40;79.40
16402;DHT22;8310;44.626;11.176;2024-03-02T11:46:06;17.50;78.90
16402;DHT22;8310;44.626;11.176;2024-03-02T11:48:34;17.50;78.50
16402;DHT22;8310;44.626;11.176;2024-03-02T11:51:02;17.40;78.00
16402;DHT22;8310;44.626;11.176;2024-03-02T11:53:30;17.30;77.60
16402;DHT22;8310;44.626;11.176;2024-03-02T11:55:58;17.30;77.00
16402;DHT22;8310;44.626;11.176;2024-03-02T11:58:27;17.10;76.60
16402;DHT22;8310;44.626;11.176;2024-03-02T12:00:54;16.90;76.60
16402;DHT22;8310;44.626;11.176;2024-03-02T12:03:23;16.90;76.90
16402;DHT22;8310;44.626;11.176;2024-03-02T12:05:51;16.80;76.80
16402;DHT22;8310;44.626;11.176;2024-03-02T12:08:19;16.70;76.50
16402;DHT22;8310;44.626;11.176;2024-03-02T12:10:55;16.60;76.60
16402;DHT22;8310;44.626;11.176;2024-03-02T12:13:23;16.60;76.90
16402;DHT22;8310;44.626;11.176;2024-03-02T12:15:53;16.60;77.20
16402;DHT22;8310;44.626;11.176;2024-03-02T12:18:22;16.60;77.40
16402;DHT22;8310;44.626;11.176;2024-03-02T12:20:51;16.70;77.60
16402;DHT22;8310;44.626;11.176;2024-03-02T12:23:21;16.70;77.50
16402;DHT22;8310;44.626;11.176;2024-03-02T12:25:49;16.70;77.20
16402;DHT22;8310;44.626;11.176;2024-03-02T12:28:16;16.70;77.20
16402;DHT22;8310;44.626;11.176;2024-03-02T12:30:45;16.70;77.30
16402;DHT22;8310;44.626;11.176;2024-03-02T12:33:13;16.70;77.20
16402;DHT22;8310;44.626;11.176;2024-03-02T12:35:42;16.80;77.50
16402;DHT22;8310;44.626;11.176;2024-03-02T12:38:09;16.80;77.30
16402;DHT22;8310;44.626;11.176;2024-03-02T12:40:38;16.70;76.70
16402;DHT22;8310;44.626;11.176;2024-03-02T12:43:05;16.60;76.50
16402;DHT22;8310;44.626;11.176;2024-03-02T12:45:33;16.60;76.70
16402;DHT22;8310;44.626;11.176;2024-03-02T12:48:00;16.50;76.70
16402;DHT22;8310;44.626;11.176;2024-03-02T12:50:27;16.50;76.50
16402;DHT22;8310;44.626;11.176;2024-03-02T12:52:56;16.40;76.20
16402;DHT22;8310;44.626;11.176;2024-03-02T12:55:23;16.30;76.40
16402;DHT22;8310;44.626;11.176;2024-03-02T12:57:51;16.30;76.70
16402;DHT22;8310;44.626;11.176;2024-03-02T13:00:19;16.40;77.00
16402;DHT22;8310;44.626;11.176;2024-03-02T13:02:47;16.40;77.10
16402;DHT22;8310;44.626;11.176;2024-03-02T13:05:16;16.40;77.10
16402;DHT22;8310;44.626;11.176;2024-03-02T13:07:43;16.50;77.30
16402;DHT22;8310;44.626;11.176;2024-03-02T13:10:13;16.50;77.40
16402;DHT22;8310;44.626;11.176;2024-03-02T13:12:40;16.60;77.40
16402;DHT22;8310;44.626;11.176;2024-03-02T13:15:08;16.60;77.40
16402;DHT22;8310;44.626;11.176;2024-03-02T13:17:35;16.70;77.40
16402;DHT22;8310;44.626;11.176;2024-03-02T13:20:02;16.70;77.40
16402;DHT22;8310;44.626;11.176;2024-03-02T13:22:33;16.70;77.40
16402;DHT22;8310;44.626;11.176;2024-03-02T13:25:00;16.70;77.30
16402;DHT22;8310;44.626;11.176;2024-03-02T13:27:30;16.70;77.20
16402;DHT22;8310;44.626;11.176;2024-03-02T13:29:58;16.80;77.30
16402;DHT22;8310;44.626;11.176;2024-03-02T13:32:25;16.80;77.20
16402;DHT22;8310;44.626;11.176;2024-03-02T13:34:53;16.70;77.10
16402;DHT22;8310;44.626;11.176;2024-03-02T13:37:20;16.80;77.90
16402;DHT22;8310;44.626;11.176;2024-03-02T13:39:48;16.80;77.30
16402;DHT22;8310;44.626;11.176;2024-03-02T13:42:16;16.80;77.40
16402;DHT22;8310;44.626;11.176;2024-03-02T13:44:44;16.90;77.60
16402;DHT22;8310;44.626;11.176;2024-03-02T13:47:13;16.90;77.70
16402;DHT22;8310;44.626;11.176;2024-03-02T13:49:41;17.00;77.90
16402;DHT22;8310;44.626;11.176;2024-03-02T13:52:11;17.20;78.10
16402;DHT22;8310;44.626;11.176;2024-03-02T13:54:38;17.30;78.20
16402;DHT22;8310;44.626;11.176;2024-03-02T13:57:06;17.40;78.20
16402;DHT22;8310;44.626;11.176;2024-03-02T13:59:34;17.40;78.10
16402;DHT22;8310;44.626;11.176;2024-03-02T14:02:03;17.40;78.00
16402;DHT22;8310;44.626;11.176;2024-03-02T14:04:31;17.50;77.90
16402;DHT22;8310;44.626;11.176;2024-03-02T14:06:59;17.50;77.80
16402;DHT22;8310;44.626;11.176;2024-03-02T14:09:27;17.60;77.70
16402;DHT22;8310;44.626;11.176;2024-03-02T14:11:55;17.60;77.70
16402;DHT22;8310;44.626;11.176;2024-03-02T14:14:22;17.60;77.90
16402;DHT22;8310;44.626;11.176;2024-03-02T14:16:50;17.70;78.20
16402;DHT22;8310;44.626;11.176;2024-03-02T14:19:18;17.70;78.20
16402;DHT22;8310;44.626;11.176;2024-03-02T14:21:47;17.90;78.50
16402;DHT22;8310;44.626;11.176;2024-03-02T14:24:14;18.00;78.70
16402;DHT22;8310;44.626;11.176;2024-03-02T14:26:42;18.10;78.90
16402;DHT22;8310;44.626;11.176;2024-03-02T14:29:09;18.30;79.00
16402;DHT22;8310;44.626;11.176;2024-03-02T14:31:36;18.40;78.70
16402;DHT22;8310;44.626;11.176;2024-03-02T14:34:04;18.50;78.70
16402;DHT22;8310;44.626;11.176;2024-03-02T14:36:33;18.60;78.40
16402;DHT22;8310;44.626;11.176;2024-03-02T14:39:00;18.60;78.30
16402;DHT22;8310;44.626;11.176;2024-03-02T14:41:29;18.70;78.10
16402;DHT22;8310;44.626;11.176;2024-03-02T14:43:57;18.70;77.90
16402;DHT22;8310;44.626;11.176;2024-03-02T14:46:24;18.70;77.70
16402;DHT22;8310;44.626;11.176;2024-03-02T14:48:52;18.70;77.60
16402;DHT22;8310;44.626;11.176;2024-03-02T14:51:19;18.60;77.40
16402;DHT22;8310;44.626;11.176;2024-03-02T14:53:48;18.60;78.00
16402;DHT22;8310;44.626;11.176;2024-03-02T14:56:15;18.50;77.00
16402;DHT22;8310;44.626;11.176;2024-03-02T14:58:43;18.40;76.70
16402;DHT22;8310;44.626;11.176;2024-03-02T15:01:11;18.30;76.80
16402;DHT22;8310;44.626;11.176;2024-03-02T15:03:39;18.30;77.10
16402;DHT22;8310;44.626;11.176;2024-03-02T15:06:06;18.30;77.50
16402;DHT22;8310;44.626;11.176;2024-03-02T15:08:34;18.40;77.70
16402;DHT22;8310;44.626;11.176;2024-03-02T15:11:03;18.50;78.00
16402;DHT22;8310;44.626;11.176;2024-03-02T15:13:30;18.70;78.00
16402;DHT22;8310;44.626;11.176;2024-03-02T15:15:58;18.80;78.00
16402;DHT22;8310;44.626;11.176;2024-03-02T15:18:25;18.90;78.00
16402;DHT22;8310;44.626;11.176;2024-03-02T15:20:52;19.10;78.10
16402;DHT22;8310;44.626;11.176;2024-03-02T15:23:20;19.20;77.80
16402;DHT22;8310;44.626;11.176;2024-03-02T15:25:46;19.20;77.50
16402;DHT22;8310;44.626;11.176;2024-03-02T15:28:16;19.20;77.10
16402;DHT22;8310;44.626;11.176;2024-03-02T15:30:44;19.20;77.10
16402;DHT22;8310;44.626;11.176;2024-03-02T15:33:11;19.30;77.20
16402;DHT22;8310;44.626;11.176;2024-03-02T15:35:38;19.30;77.40
16402;DHT22;8310;44.626;11.176;2024-03-02T15:38:05;19.50;77.70